X  Lukk Metar værinformasjon om luftfart     KCRE Grand Strand Airport
Temperatur
72°F Temperatur
54°F Duggpunkt
53% Luftfuktighet



Vind
9 MPT
14 KM/T
4 M/S
8 KNP



180°
Sør
Nåværende forhold

Klart Klart
Trykk 1018.62 (hPa) - 30.08 (inHg)
Sikt 9.9 (mil) - 16 (km)
Flyplass
Flyplass-kode KCRE

Plassering: Grand Strand Airport
Avstand: 6 (mi)

Metar:
KCRE 231753Z 18008KT 10SM CLR 22/12 A3008 RMK AO1 SLP188 T02220117 10239 20139 58012

Tid: 23-09-2020 1:53 pm EDT